Latest Coastal Weather Observations for Strahan

IDT60701

Issued at 1:52 pm EDT Tuesday 6 December 2016 (issued every 10 minutes, with the page automatically refreshed every 10 minutes)

About coastal observations | Map of coastal stations | Coastal observations for TAS | Marine services | Other Formats
Station Details ID: 097072 Name: STRAHAN AERODROME Lat: -42.16 Lon: 145.29 Height: 21.0 m
Data from the previous 72 hours. | See also: Recent months at Strahan
Date/Time
EDT
Temp
°C
Wind Pressure Rain since
9am
mm
Weather Cloud Vis
km
Sea
Height
m
Swell
Dir  Spd
kts
Gust
kts
hPa Trend Height
m
Period
s
Dir
06/01:30pm 16.2 WNW 12 17 1012.1 - 0.0 - Partly cloudy 10 - - - -
06/01:00pm 16.0 NW 14 18 1012.2 - 0.0 - - 10 - - - -
06/12:30pm 14.0 WNW 11 16 1012.2 - 0.0 - Partly cloudy 10 - - - -
06/12:00pm 15.1 WNW 12 16 1012.1 - 0.0 - Cloudy 10 - - - -
06/11:30am 16.1 NW 12 16 1012.0 - 0.0 - Partly cloudy 10 - - - -
06/11:00am 15.6 NW 10 13 1011.9 - 0.0 - Cloudy 10 - - - -
06/10:30am 14.3 NW 10 14 1011.9 - 0.0 - Cloudy 10 - - - -
06/10:00am 14.3 WNW 9 11 1011.9 - 0.0 - Partly cloudy 10 - - - -
06/09:30am 12.8 N 5 7 1012.2 - 0.0 - Partly cloudy 10 - - - -
06/09:00am 12.3 N 4 6 1012.1 - 0.8 - Cloudy 10 - - - -
06/08:30am 11.3 NNE 5 7 1011.8 - 0.8 - Cloudy 10 - - - -
06/08:00am 10.5 NNE 6 8 1011.7 - 0.8 - Cloudy 10 - - - -
06/07:30am 9.9 NNE 6 8 1011.9 - 0.8 - Cloudy 10 - - - -
06/07:00am 9.3 NNE 7 8 1012.1 - 0.8 - Cloudy 10 - - - -
06/06:30am 8.9 NNE 6 7 1012.1 - 0.8 - Partly cloudy 10 - - - -
06/06:00am 8.6 NNE 7 9 1012.2 - 0.8 - Cloudy 10 - - - -
06/05:30am 8.5 NNE 6 8 1012.1 - 0.8 - Cloudy 10 - - - -
06/05:00am 8.4 NNE 4 6 1011.7 - 0.8 - Cloudy 10 - - - -
06/04:30am 8.3 N 4 6 1012.1 - 0.8 - Cloudy 10 - - - -
06/04:00am 8.2 NNE 6 8 1011.5 - 0.8 - Partly cloudy 10 - - - -
06/03:30am 8.5 N 4 6 1011.0 - 0.8 - Cloudy 10 - - - -
06/03:00am 8.6 NNE 5 6 1010.7 - 0.8 - Cloudy 10 - - - -
06/02:30am 8.6 NNE 7 9 1011.8 - 0.8 - Cloudy 10 - - - -
06/02:00am 8.2 NNE 8 10 1012.1 - 0.8 - Partly cloudy 10 - - - -
06/01:30am 7.8 N 5 6 1012.0 - 0.8 - Partly cloudy 10 - - - -
06/01:00am 8.5 N 3 4 1012.0 - 0.8 - Cloudy 10 - - - -
06/12:30am 9.0 NE 1 5 1012.1 - 0.8 - Cloudy 10 - - - -
06/12:00am 9.4 NNE 5 7 1012.9 - 0.8 - Mostly cloudy 10 - - - -
 
Date/Time
EDT
Temp
°C
Wind Pressure Rain since
9am
mm
Weather Cloud Vis
km
Sea
Height
m
Swell
Dir  Spd
kts
Gust
kts
hPa Trend Height
m
Period
s
Dir
05/11:30pm 9.0 N 5 6 1013.2 - 0.8 - Partly cloudy 10 - - - -
05/11:00pm 9.3 NNE 4 6 1013.5 - 0.8 - Partly cloudy 10 - - - -
05/10:30pm 9.5 NNE 4 5 1013.6 - 0.8 - Partly cloudy 10 - - - -
05/10:00pm 9.5 CALM 0 0 1013.3 - 0.8 - Partly cloudy 10 - - - -
05/09:30pm 10.9 SSW 3 3 1013.2 - 0.8 - Partly cloudy 10 - - - -
05/09:00pm 11.6 WSW 3 4 1013.4 - 0.8 - Mostly cloudy 10 - - - -
05/08:30pm 12.2 WSW 4 5 1013.5 - 0.8 - Cloudy 10 - - - -
05/08:00pm 12.8 W 4 6 1013.5 - 0.8 - Partly cloudy 10 - - - -
05/07:30pm 13.3 WSW 6 8 1012.8 - 0.8 - Partly cloudy 10 - - - -
05/07:00pm 13.4 W 6 9 1012.6 - 0.8 - Cloudy 10 - - - -
05/06:30pm 13.8 WSW 9 14 1012.4 - 0.8 - Partly cloudy 10 - - - -
05/06:00pm 13.6 W 10 13 1012.1 - 0.8 - Partly cloudy 10 - - - -
05/05:30pm 14.9 W 10 14 1011.9 - 0.8 - Partly cloudy 10 - - - -
05/05:00pm 16.0 W 10 14 1011.7 - 0.8 - Partly cloudy 10 - - - -
05/04:30pm 15.3 W 11 14 1011.7 - 0.8 - Cloudy 10 - - - -
05/04:00pm 16.4 W 12 16 1011.7 - 0.8 - Cloudy 10 - - - -
05/03:30pm 15.6 WSW 12 19 1011.5 - 0.8 - Partly cloudy 10 - - - -
05/03:00pm 16.9 W 14 18 1011.2 - 0.8 - Cloudy 10 - - - -
05/02:30pm 16.2 W 11 16 1010.9 - 0.8 - Partly cloudy 10 - - - -
05/02:00pm 14.8 W 13 18 1010.8 - 0.8 - Partly cloudy 10 - - - -
05/01:30pm 16.0 WSW 14 18 1010.2 - 0.6 - Cloudy 10 - - - -
05/01:00pm 15.8 W 12 17 1010.0 - 0.6 - Partly cloudy 10 - - - -
05/12:30pm 13.5 W 14 21 1009.7 - 0.6 - Cloudy 7 - - - -
05/12:00pm 14.9 WSW 12 17 1009.3 - 0.6 - Cloudy 10 - - - -
05/11:30am 14.5 WSW 13 18 1008.7 - 0.6 - Partly cloudy 10 - - - -
05/11:00am 14.2 WSW 12 16 1008.3 - 0.6 - Partly cloudy 10 - - - -
05/10:30am 14.2 W 12 16 1007.8 - 0.6 - Partly cloudy 10 - - - -
05/10:00am 13.8 WSW 15 20 1007.5 - 0.6 - Partly cloudy 10 - - - -
05/09:57am 13.4 WSW 16 20 1007.5 - 0.6 - Partly cloudy 10 - - - -
05/09:43am 12.4 W 15 22 1007.5 - 0.6 - Partly cloudy 5 - - - -
05/09:30am 14.5 WNW 12 17 1007.2 - 0.2 - Partly cloudy 10 - - - -
05/09:25am 14.5 WNW 12 17 1007.2 - 0.2 - Partly cloudy 10 - - - -
05/09:06am 12.7 WNW 16 23 1007.0 - 0.2 - Partly cloudy 5 - - - -
05/09:00am 14.3 NW 15 20 1006.7 - 9.8 - Cloudy 10 - - - -
05/08:30am 14.3 NW 14 18 1006.4 - 9.8 - Cloudy 10 - - - -
05/08:00am 14.2 WNW 13 18 1006.1 - 9.8 - Cloudy 10 - - - -
05/07:30am 14.0 NW 13 18 1005.5 - 9.8 - Cloudy 10 - - - -
05/07:00am 13.3 NW 13 18 1004.7 - 9.8 - Partly cloudy 10 - - - -
05/06:30am 13.1 NW 13 19 1004.4 - 9.8 - Partly cloudy 10 - - - -
05/06:00am 12.2 NW 11 15 1003.8 - 9.8 - Mostly clear 10 - - - -
05/05:30am 12.4 WNW 13 17 1003.3 - 9.8 - Partly cloudy 9 - - - -
05/05:00am 12.7 WNW 16 24 1002.6 - 9.8 - Partly cloudy 10 - - - -
05/04:41am 12.9 W 18 28 1002.2 - 9.8 - Partly cloudy 9 - - - -
05/04:40am 12.9 W 19 28 1002.2 - 9.8 - Partly cloudy 9 - - - -
05/04:30am 13.3 WNW 17 27 1001.9 - 9.8 - Partly cloudy 8 - - - -
05/04:29am 13.3 WNW 17 27 1001.9 - 9.8 - Partly cloudy 8 - - - -
05/04:26am 13.5 WNW 16 27 1001.8 - 9.8 - Partly cloudy 8 - - - -
05/04:04am 14.1 WNW 17 22 1001.2 - 9.8 - Partly cloudy 7 - - - -
05/04:00am 14.1 WNW 18 25 1001.1 - 9.8 - Partly cloudy 7 - - - -
05/03:51am 14.2 WNW 15 25 1000.9 - 9.8 - Partly cloudy 4 - - - -
05/03:38am 14.4 WNW 17 23 1000.5 - 9.6 - Partly cloudy 5 - - - -
05/03:31am 14.5 WNW 19 26 1000.3 - 9.6 - Partly cloudy 8 - - - -
05/03:30am 14.4 WNW 19 26 1000.3 - 9.6 - Partly cloudy 8 - - - -
05/03:12am 14.7 WNW 21 31 999.7 - 9.6 - Cloudy 5 - - - -
05/03:00am 15.0 NW 20 27 999.1 - 9.4 Recent precip. Mostly cloudy 6 - - - -
05/02:33am 15.9 NW 24 34 997.9 - 9.4 - Partly cloudy 2 - - - -
05/02:30am 16.1 NW 25 34 997.7 - 9.4 - Partly cloudy 2 - - - -
05/02:07am 16.8 NW 25 36 996.6 - 8.8 - Partly cloudy 2 - - - -
05/02:00am 17.0 NW 26 36 996.6 - 8.2 - Partly cloudy 3 - - - -
05/01:30am 17.9 NNW 24 37 995.9 - 6.4 - Partly cloudy 4 - - - -
05/01:21am 17.8 NW 15 37 995.9 - 5.8 - Partly cloudy 2 - - - -
05/01:11am 17.6 NW 11 15 996.0 - 3.6 - Partly cloudy 5 - - - -
05/01:00am 17.8 N 13 24 994.6 - 2.4 - Partly cloudy 10 - - - -
05/12:30am 17.5 N 14 24 995.4 - 2.0 - Partly cloudy 7 - - - -
05/12:00am 18.8 N 15 23 996.2 - 1.2 - Cloudy 10 - - - -
 
Date/Time
EDT
Temp
°C
Wind Pressure Rain since
9am
mm
Weather Cloud Vis
km
Sea
Height
m
Swell
Dir  Spd
kts
Gust
kts
hPa Trend Height
m
Period
s
Dir
04/11:30pm 18.5 NNE 15 25 997.1 - 1.2 - Partly cloudy 10 - - - -
04/11:00pm 17.7 NNE 19 29 998.0 - 1.2 - Partly cloudy 10 - - - -
04/10:35pm 17.1 N 15 25 998.7 - 1.2 - Cloudy 10 - - - -
04/10:30pm 16.9 N 14 24 998.9 - 1.2 - Cloudy 10 - - - -
04/10:04pm 16.8 N 16 30 999.7 - 1.0 - Partly cloudy 10 - - - -
04/10:00pm 16.9 N 15 24 999.9 - 1.0 - Partly cloudy 10 - - - -
04/09:30pm 16.5 NNE 12 21 999.4 - 0.6 - Partly cloudy 10 - - - -
04/09:00pm 17.4 NNE 12 19 1000.2 - 0.6 Rain Cloudy 9 - - - -
04/08:33pm 19.0 N 15 26 1000.8 - 0.0 - Partly cloudy 10 - - - -
04/08:30pm 20.1 N 14 22 1000.7 - 0.0 - Partly cloudy 10 - - - -
04/08:00pm 21.3 NNE 12 22 1000.4 - 0.0 - Cloudy 10 - - - -
04/07:30pm 21.7 N 12 20 1000.5 - 0.0 - Partly cloudy 10 - - - -
04/07:00pm 22.4 N 12 21 1001.0 - 0.0 - Partly cloudy 10 - - - -
04/06:30pm 22.5 N 11 17 1000.6 - 0.0 - Partly cloudy 10 - - - -
04/06:00pm 23.0 NNE 13 21 1001.2 - 0.0 - Cloudy 10 - - - -
04/05:30pm 23.6 NNE 13 21 1002.1 - 0.0 - - 10 - - - -
04/05:00pm 24.1 N 15 25 1002.9 - 0.0 - - 10 - - - -
04/04:38pm 24.5 N 15 25 1003.2 - 0.0 - - 10 - - - -
04/04:30pm 24.8 N 14 21 1003.3 - 0.0 - - 10 - - - -
04/04:00pm 25.0 N 12 18 1003.6 - 0.0 - - 10 - - - -
04/03:30pm 24.8 N 12 18 1004.2 - 0.0 - - 10 - - - -
04/03:00pm 25.6 N 14 19 1004.6 - 0.0 - - 10 - - - -
04/02:30pm 25.5 N 11 17 1005.4 - 0.0 - - 10 - - - -
04/02:00pm 24.4 N 12 17 1006.0 - 0.0 - - 10 - - - -
04/01:30pm 22.9 ESE 5 8 1007.1 - 0.0 - - 10 - - - -
04/01:00pm 21.6 ESE 6 8 1007.9 - 0.0 - - 10 - - - -
04/12:30pm 20.0 SE 6 8 1008.5 - 0.0 - - 10 - - - -
04/12:00pm 18.1 SSE 5 7 1009.4 - 0.0 - - 10 - - - -
04/11:30am 18.4 S 6 11 1009.8 - 0.0 - - 10 - - - -
04/11:00am 17.5 WSW 5 7 1010.6 - 0.0 - - 10 - - - -
04/10:30am 17.7 SW 5 8 1010.8 - 0.0 - - 10 - - - -
04/10:00am 16.3 WNW 5 8 1011.3 - 0.0 - - 10 - - - -
04/09:30am 15.8 NW 7 11 1011.9 - 0.0 - - 10 - - - -
04/09:00am 15.0 NW 5 8 1011.9 - 0.0 - - 10 - - - -
04/08:30am 14.0 NNE 3 5 1012.0 - 0.0 - - 10 - - - -
04/08:00am 12.6 ENE 4 5 1012.1 - 0.0 - - 10 - - - -
04/07:30am 10.6 E 4 5 1012.3 - 0.0 - - 10 - - - -
04/07:00am 9.3 E 3 5 1012.7 - 0.0 - - 10 - - - -
04/06:30am 8.5 ENE 4 5 1012.9 - 0.0 - - 10 - - - -
04/06:00am 6.8 NNE 5 7 1013.1 - 0.0 - - 10 - - - -
04/05:30am 6.5 NNE 4 5 1012.7 - 0.0 - - 10 - - - -
04/05:00am 6.6 NNE 5 7 1012.5 - 0.0 - - 10 - - - -
04/04:30am 6.8 NE 4 5 1012.2 - 0.0 - - 10 - - - -
04/04:00am 6.7 NE 4 6 1012.6 - 0.0 - - 10 - - - -
04/03:30am 7.2 NNE 5 8 1013.0 - 0.0 - - 10 - - - -
04/03:00am 7.2 N 4 7 1013.2 - 0.0 - - 10 - - - -
04/02:30am 7.6 NNE 5 6 1013.2 - 0.0 - - 10 - - - -
04/02:00am 7.6 NNE 5 7 1013.9 - 0.0 - - 10 - - - -
04/01:30am 7.9 NE 4 5 1014.3 - 0.0 - - 10 - - - -
04/01:00am 8.3 NNE 5 6 1014.9 - 0.0 - - 10 - - - -
04/12:30am 8.6 NNE 5 6 1015.2 - 0.0 - - 10 - - - -
04/12:00am 8.9 NNE 6 8 1015.7 - 0.0 - - 10 - - - -
 
Date/Time
EDT
Temp
°C
Wind Pressure Rain since
9am
mm
Weather Cloud Vis
km
Sea
Height
m
Swell
Dir  Spd
kts
Gust
kts
hPa Trend Height
m
Period
s
Dir
03/11:30pm 9.3 NNE 6 8 1015.9 - 0.0 - - 10 - - - -
03/11:00pm 9.6 N 4 6 1016.0 - 0.0 - - 10 - - - -
03/10:30pm 9.7 NNE 6 8 1016.1 - 0.0 - - 10 - - - -
03/10:00pm 9.9 NNE 5 6 1016.1 - 0.0 - - 10 - - - -
03/09:30pm 10.2 N 4 5 1016.0 - 0.0 - - 10 - - - -
03/09:00pm 11.1 NNW 3 4 1015.8 - 0.0 - - 10 - - - -
03/08:30pm 12.1 WNW 5 7 1016.0 - 0.0 - - 10 - - - -
03/08:00pm 13.3 WNW 8 11 1015.9 - 0.0 - Partly cloudy 10 - - - -
03/07:30pm 13.6 WNW 9 12 1015.7 - 0.0 - - 10 - - - -
03/07:00pm 14.9 WNW 10 13 1015.5 - 0.0 - - 10 - - - -
03/06:30pm 14.7 WNW 12 15 1015.4 - 0.0 - - 10 - - - -
03/06:00pm 15.3 WNW 12 16 1015.2 - 0.0 - - 10 - - - -
03/05:30pm 16.1 WNW 11 14 1015.2 - 0.0 - - 10 - - - -
03/05:00pm 16.1 NW 12 17 1015.2 - 0.0 - - 10 - - - -
03/04:30pm 16.2 NW 13 17 1015.2 - 0.0 - Partly cloudy 10 - - - -
03/04:00pm 15.6 WNW 13 17 1015.3 - 0.0 - Partly cloudy 10 - - - -
03/03:30pm 16.8 WNW 14 18 1015.4 - 0.0 - - 10 - - - -
03/03:00pm 16.7 WNW 14 18 1015.4 - 0.0 - - 10 - - - -
03/02:30pm 17.2 NW 12 17 1015.3 - 0.0 - - 10 - - - -
03/02:00pm 16.4 NW 14 19 1015.3 - 0.0 - Partly cloudy 10 - - - -

Other Formats:

Comma delimited format used in spreadsheet applications
http://www.bom.gov.au/fwo/IDT60701/IDT60701.94956.axf

JavaScript Object Notation format (JSON) in row-major order
http://www.bom.gov.au/fwo/IDT60701/IDT60701.94956.json